Otumpa, Argentina
Current Conditions -  °F | °C
As of 11:00 PM on Wednesday 17 Dec 2014 (Local Time) from SANT Reporting Station
Broken Clouds Broken Clouds  
Wind Chill: 75°   Ceiling: 10000
Heat Index: 75°   Visibility: 6mi
Dew Point: 70°   Wind: 5mph
Humidity: 83%   Direction: 320°NW
Pressure: 29.97"   Gusts: NA
Location:  27.32°S, 62.22°W
Report Text: SANT 180200Z 32004KT 9999 FEW040 BKN10024/21 Q1015
Loading
Personal Weather Stations






























Interactive Weather Map New forecast layout! Learn more

10-Day Weather Forecast

Advertisements
Track Severe Weather on mobile